ESNN/SDL METAR and TAF weather

Enter ICAO airport designator
Station Type Date Time Source
ESNN METAR 2019/12/11 15:20 UTC NOAA

ESNN 111520Z 12006KT CAVOK M01/M01 Q0995 R16/79//35


Station Type Date Time Source
ESNN Decoded METAR 2019/12/11 15:20 UTC NOAA

Sundsvall-Harnosand Flygplats, Sweden (ESNN) 62-32N 017-27E 10M
Dec 11, 2019 - 10:20 AM EST / 2019.12.11 1520 UTC
Wind: from the ESE (120 degrees) at 7 MPH (6 KT):0
Visibility: greater than 7 mile(s):0
Temperature: 30 F (-1 C)
Windchill: 23 F (-5 C):1
Dew Point: 30 F (-1 C)
Relative Humidity: 100%
Pressure (altimeter): 29.38 in. Hg (0995 hPa)
ob: ESNN 111520Z 12006KT CAVOK M01/M01 Q0995 R16/79//35
cycle: 15

Station Type Date Time Source
ESNN TAF 2016/05/29 09:33 UTC NOAA

TAF TAF ESNN 290830Z 2909/3018 07006KT 9999 SCT045
BECMG 2913/2915 14010KT

Example: see airport list